Time;durP1;ratioP1;P1;durP2;ratioP2;P2;SDS_P1;SDS_P2;PMS_P1;PMS_P2;Temp;Humidity;BMP_temperature;BMP_pressure;BME280_temperature;BME280_humidity;BME280_pressure;Samples;Min_cycle;Max_cycle;Signal;HPM_P1;HPM_P2
2021/01/01 00:00:11;;;;;;;;;;;;;;;1.02;80.63;97326.67;1741363;82;25214;-89
2021/01/01 00:03:00;;;;;;;;;;;;;;;1.05;80.60;97330.81;1741327;82;20171;-90
2021/01/01 00:05:50;;;;;;;;;;;;;;;0.96;80.61;97329.99;1735114;82;40676;-89
2021/01/01 00:08:38;;;;;;;;;;;;;;;0.90;80.60;97329.84;1740721;81;24630;-90
2021/01/01 00:11:27;;;;;;;;;;;;;;;0.88;80.57;97328.23;1722448;82;20251;-89
2021/01/01 00:14:14;;;;;;;;;;;;;;;0.94;80.56;97321.05;1737709;82;25148;-90
2021/01/01 00:17:03;;;;;;;;;;;;;;;1.12;80.55;97325.30;1735224;82;22261;-90
2021/01/01 00:19:49;;;;;;;;;;;;;;;1.21;80.56;97323.53;1734802;81;26126;-91
2021/01/01 00:22:35;;;;;;;;;;;;;;;1.25;80.58;97331.48;1685136;84;24726;-90
2021/01/01 00:25:21;;;;;;;;;;;;;;;1.18;80.62;97331.89;1680397;83;20273;-89
2021/01/01 00:28:07;;;;;;;;;;;;;;;1.04;80.65;97330.43;1710139;83;25170;-89
2021/01/01 00:30:53;;;;;;;;;;;;;;;0.85;80.65;97330.52;1729628;81;22172;-90
2021/01/01 00:33:42;;;;;;;;;;;;;;;0.70;80.65;97335.97;1687350;83;26130;-90
2021/01/01 00:36:27;;;;;;;;;;;;;;;0.56;80.61;97331.08;1696127;83;24713;-90
2021/01/01 00:39:13;;;;;;;;;;;;;;;0.45;80.60;97326.44;1688543;83;20433;-90
2021/01/01 00:41:59;;;;;;;;;;;;;;;0.40;80.54;97326.66;1691721;83;25904;-90
2021/01/01 00:44:45;;;;;;;;;;;;;;;0.42;80.51;97330.45;1690703;84;21417;-90
2021/01/01 00:47:32;;;;;;;;;;;;;;;0.49;80.51;97334.87;1687434;83;26224;-90
2021/01/01 00:50:18;;;;;;;;;;;;;;;0.56;80.51;97341.37;1688468;83;24627;-90
2021/01/01 00:53:04;;;;;;;;;;;;;;;0.58;80.52;97347.30;1689976;84;20395;-90
2021/01/01 00:55:50;;;;;;;;;;;;;;;0.70;80.55;97351.87;1686322;83;26028;-89
2021/01/01 00:58:39;;;;;;;;;;;;;;;0.87;80.58;97361.36;1710653;82;23081;-89
2021/01/01 01:01:25;;;;;;;;;;;;;;;1.05;80.59;97354.00;1707282;82;26135;-90
2021/01/01 01:04:11;;;;;;;;;;;;;;;1.18;80.62;97361.52;1731382;82;24600;-89
2021/01/01 01:06:57;;;;;;;;;;;;;;;1.25;80.65;97364.18;1732733;82;20640;-90
2021/01/01 01:09:43;;;;;;;;;;;;;;;1.26;80.69;97360.21;1725269;81;25140;-89
2021/01/01 01:12:29;;;;;;;;;;;;;;;1.43;80.72;97363.23;1713299;82;22150;-90
2021/01/01 01:15:15;;;;;;;;;;;;;;;1.50;80.75;97368.47;1682480;84;26068;-90
2021/01/01 01:18:01;;;;;;;;;;;;;;;1.46;80.79;97366.97;1685394;83;24622;-90
2021/01/01 01:20:47;;;;;;;;;;;;;;;1.24;80.81;97364.63;1686812;82;20346;-90
2021/01/01 01:23:34;;;;;;;;;;;;;;;1.18;80.80;97367.51;1648518;85;25130;-90
2021/01/01 01:26:19;;;;;;;;;;;;;;;1.08;80.80;97359.86;1655673;84;22240;-90
2021/01/01 01:29:06;;;;;;;;;;;;;;;1.02;80.78;97364.02;1684311;83;26266;-90
2021/01/01 01:31:52;;;;;;;;;;;;;;;1.04;80.74;97360.89;1719728;81;24587;-89
2021/01/01 01:34:39;;;;;;;;;;;;;;;1.15;80.72;97368.93;1685202;83;20579;-90
2021/01/01 01:37:27;;;;;;;;;;;;;;;1.31;80.69;97373.34;1719521;81;25348;-90
2021/01/01 01:40:13;;;;;;;;;;;;;;;1.49;80.70;97372.41;1660578;85;22436;-90
2021/01/01 01:42:59;;;;;;;;;;;;;;;1.69;80.68;97375.62;1649915;85;26332;-90
2021/01/01 01:45:45;;;;;;;;;;;;;;;1.65;80.74;97382.31;1668938;83;24009;-89
2021/01/01 01:48:31;;;;;;;;;;;;;;;1.59;80.78;97378.75;1666980;85;20579;-90
2021/01/01 01:51:17;;;;;;;;;;;;;;;1.40;80.80;97386.60;1668345;85;25173;-90
2021/01/01 01:54:03;;;;;;;;;;;;;;;1.42;80.77;97387.82;1670878;83;22171;-90
2021/01/01 01:56:49;;;;;;;;;;;;;;;1.43;80.75;97391.59;1668742;85;26113;-90
2021/01/01 01:59:35;;;;;;;;;;;;;;;1.23;80.75;97387.44;1667166;84;24801;-90
2021/01/01 02:02:21;;;;;;;;;;;;;;;1.16;80.72;97390.38;1667140;85;20272;-90
2021/01/01 02:05:07;;;;;;;;;;;;;;;1.07;80.69;97392.13;1668337;84;26150;-89
2021/01/01 02:07:54;;;;;;;;;;;;;;;0.95;80.67;97384.98;1668030;84;22244;-90
2021/01/01 02:10:39;;;;;;;;;;;;;;;0.79;80.65;97383.60;1686278;82;26442;-90
2021/01/01 02:13:25;;;;;;;;;;;;;;;0.71;80.62;97381.86;1697228;84;24625;-90
2021/01/01 02:16:11;;;;;;;;;;;;;;;0.68;80.59;97382.83;1713995;82;20614;-89
2021/01/01 02:19:00;;;;;;;;;;;;;;;0.65;80.56;97379.13;1714190;82;25128;-89
2021/01/01 02:21:46;;;;;;;;;;;;;;;0.58;80.54;97378.19;1680147;84;22181;-89
2021/01/01 02:24:33;;;;;;;;;;;;;;;0.59;80.54;97376.83;1693155;84;27335;-89
2021/01/01 02:27:18;;;;;;;;;;;;;;;0.63;80.52;97377.52;1712687;83;24629;-89
2021/01/01 02:30:04;;;;;;;;;;;;;;;0.62;80.53;97378.41;1697332;82;20264;-89
2021/01/01 02:32:51;;;;;;;;;;;;;;;0.53;80.55;97370.68;1713991;82;25115;-90
2021/01/01 02:35:36;;;;;;;;;;;;;;;0.50;80.54;97370.80;1694767;84;22146;-89
2021/01/01 02:38:23;;;;;;;;;;;;;;;0.52;80.55;97367.72;1696388;82;26406;-90
2021/01/01 02:41:09;;;;;;;;;;;;;;;0.55;80.55;97370.14;1723792;82;25262;-89
2021/01/01 02:43:55;;;;;;;;;;;;;;;0.64;80.57;97374.88;1713164;83;20475;-89
2021/01/01 02:46:43;;;;;;;;;;;;;;;0.70;80.59;97376.33;1693058;83;25149;-90
2021/01/01 02:49:30;;;;;;;;;;;;;;;0.89;80.61;97379.67;1716389;81;22137;-90
2021/01/01 02:52:16;;;;;;;;;;;;;;;0.94;80.66;97376.88;1684730;83;25589;-92
2021/01/01 02:55:02;;;;;;;;;;;;;;;0.97;80.70;97371.14;1716757;81;24686;-89
2021/01/01 02:57:49;;;;;;;;;;;;;;;1.01;80.71;97378.25;1691571;84;20427;-88
2021/01/01 03:00:37;;;;;;;;;;;;;;;1.08;80.72;97381.75;1712390;83;25577;-89
2021/01/01 03:03:23;;;;;;;;;;;;;;;1.11;80.75;97380.30;1693515;82;21559;-88
2021/01/01 03:06:10;;;;;;;;;;;;;;;1.12;80.77;97377.27;1714117;82;27091;-89
2021/01/01 03:08:56;;;;;;;;;;;;;;;1.19;80.75;97378.65;1673895;83;24620;-89
2021/01/01 03:11:42;;;;;;;;;;;;;;;1.30;80.76;97378.12;1693307;82;20441;-89
2021/01/01 03:14:28;;;;;;;;;;;;;;;1.40;80.76;97375.45;1731422;82;25334;-89
2021/01/01 03:17:14;;;;;;;;;;;;;;;1.47;80.79;97377.66;1707364;83;22065;-90
2021/01/01 03:20:00;;;;;;;;;;;;;;;1.52;80.82;97378.71;1720002;82;25885;-89
2021/01/01 03:22:47;;;;;;;;;;;;;;;1.55;80.85;97373.38;1718889;81;25734;-89
2021/01/01 03:25:32;;;;;;;;;;;;;;;1.55;80.85;97371.64;1717194;83;20291;-88
2021/01/01 03:28:18;;;;;;;;;;;;;;;1.55;80.86;97370.36;1721950;81;26014;-89
2021/01/01 03:31:04;;;;;;;;;;;;;;;1.53;80.87;97368.30;1694013;82;22959;-89
2021/01/01 03:33:51;;;;;;;;;;;;;;;1.47;80.87;97371.66;1730375;82;26211;-89
2021/01/01 03:36:37;;;;;;;;;;;;;;;1.35;80.83;97367.95;1700448;83;24799;-89
2021/01/01 03:39:24;;;;;;;;;;;;;;;1.35;80.83;97368.41;1703599;83;20499;-89
2021/01/01 03:42:11;;;;;;;;;;;;;;;1.32;80.81;97372.41;1703436;83;25792;-89
2021/01/01 03:45:00;;;;;;;;;;;;;;;1.32;80.80;97368.55;1703643;83;23061;-89
2021/01/01 03:47:47;;;;;;;;;;;;;;;1.35;80.79;97367.12;1696663;83;26310;-89
2021/01/01 03:50:33;;;;;;;;;;;;;;;1.40;80.79;97366.44;1707032;83;24863;-89
2021/01/01 03:53:20;;;;;;;;;;;;;;;1.41;80.78;97366.81;1701992;82;20469;-90
2021/01/01 03:55:54;;;;;;;;;;;;;;;1.39;80.79;97364.76;1697535;83;25140;-90
2021/01/01 03:58:39;;;;;;;;;;;;;;;1.35;80.78;97368.41;1701243;82;22222;-90
2021/01/01 04:01:25;;;;;;;;;;;;;;;1.39;80.76;97362.19;1702943;82;26133;-90
2021/01/01 04:04:11;;;;;;;;;;;;;;;1.40;80.76;97359.98;1700904;83;24720;-90
2021/01/01 04:06:57;;;;;;;;;;;;;;;1.44;80.75;97359.75;1700955;82;20345;-89
2021/01/01 04:09:46;;;;;;;;;;;;;;;1.51;80.76;97357.70;1704036;82;25117;-90
2021/01/01 04:12:32;;;;;;;;;;;;;;;1.54;80.79;97361.41;1700889;83;23143;-90
2021/01/01 04:15:18;;;;;;;;;;;;;;;1.57;80.80;97359.52;1701943;83;26114;-90
2021/01/01 04:18:07;;;;;;;;;;;;;;;1.57;80.79;97350.50;1702912;82;25690;-90
2021/01/01 04:20:56;;;;;;;;;;;;;;;1.51;80.81;97346.94;1703746;83;20561;-89
2021/01/01 04:23:42;;;;;;;;;;;;;;;1.33;80.83;97350.89;1703973;83;25090;-89
2021/01/01 04:26:28;;;;;;;;;;;;;;;1.31;80.79;97350.16;1702051;82;22153;-90
2021/01/01 04:29:14;;;;;;;;;;;;;;;1.44;80.75;97350.73;1700663;83;26137;-90
2021/01/01 04:32:00;;;;;;;;;;;;;;;1.53;80.75;97351.99;1697661;83;24728;-89
2021/01/01 04:34:46;;;;;;;;;;;;;;;1.62;80.73;97356.70;1728838;82;20354;-89
2021/01/01 04:37:32;;;;;;;;;;;;;;;1.63;80.71;97358.38;1700139;82;25190;-90
2021/01/01 04:40:18;;;;;;;;;;;;;;;1.63;80.70;97346.77;1734809;80;22069;-89
2021/01/01 04:43:04;;;;;;;;;;;;;;;1.60;80.72;97349.48;1692618;82;26143;-90
2021/01/01 04:45:50;;;;;;;;;;;;;;;1.48;80.72;97351.39;1730115;81;24678;-89
2021/01/01 04:48:37;;;;;;;;;;;;;;;1.39;80.71;97357.86;1708519;82;20346;-89
2021/01/01 04:51:23;;;;;;;;;;;;;;;1.29;80.70;97352.80;1723673;83;24874;-89
2021/01/01 04:54:09;;;;;;;;;;;;;;;1.19;80.67;97358.88;1711356;81;22131;-89
2021/01/01 04:56:55;;;;;;;;;;;;;;;1.15;80.65;97359.08;1738063;80;26131;-89
2021/01/01 04:59:41;;;;;;;;;;;;;;;1.08;80.62;97370.16;1735654;80;25471;-89
2021/01/01 05:02:28;;;;;;;;;;;;;;;1.04;80.59;97371.20;1706603;82;20327;-90
2021/01/01 05:05:14;;;;;;;;;;;;;;;1.07;80.55;97370.23;1730485;81;26047;-89
2021/01/01 05:08:03;;;;;;;;;;;;;;;1.08;80.54;97370.16;1694991;82;22214;-88
2021/01/01 05:10:49;;;;;;;;;;;;;;;1.04;80.53;97371.65;1734736;80;25415;-89
2021/01/01 05:13:38;;;;;;;;;;;;;;;0.97;80.52;97372.42;1704781;84;24667;-88
2021/01/01 05:16:24;;;;;;;;;;;;;;;0.90;80.49;97367.63;1689825;84;20269;-89
2021/01/01 05:19:00;;;;;;;;;;;;;;;0.79;80.48;97370.73;1734072;81;25259;-89
2021/01/01 05:21:46;;;;;;;;;;;;;;;0.82;80.45;97371.85;1737273;81;22236;-89
2021/01/01 05:24:32;;;;;;;;;;;;;;;0.77;80.43;97372.08;1679458;82;26332;-90
2021/01/01 05:27:19;;;;;;;;;;;;;;;0.77;80.43;97375.11;1731866;81;24575;-89
2021/01/01 05:30:05;;;;;;;;;;;;;;;0.78;80.40;97380.19;1735955;82;20609;-89
2021/01/01 05:32:51;;;;;;;;;;;;;;;0.68;80.40;97372.53;1729962;82;25127;-89
2021/01/01 05:35:38;;;;;;;;;;;;;;;0.59;80.40;97373.42;1693453;82;22145;-89
2021/01/01 05:38:24;;;;;;;;;;;;;;;0.45;80.38;97380.48;1683474;83;26081;-89
2021/01/01 05:41:10;;;;;;;;;;;;;;;0.35;80.36;97382.66;1700261;83;24632;-89
2021/01/01 05:44:00;;;;;;;;;;;;;;;0.21;80.33;97381.63;1722530;81;20365;-89
2021/01/01 05:46:45;;;;;;;;;;;;;;;0.18;80.29;97384.32;1688685;82;25390;-90
2021/01/01 05:49:31;;;;;;;;;;;;;;;0.11;80.28;97378.61;1686712;83;22104;-89
2021/01/01 05:52:21;;;;;;;;;;;;;;;0.02;80.25;97388.04;1688658;83;26293;-89
2021/01/01 05:55:12;;;;;;;;;;;;;;;-0.01;80.20;97386.91;1680644;83;24864;-88
2021/01/01 05:57:58;;;;;;;;;;;;;;;-0.05;80.21;97390.05;1705238;82;20361;-88
2021/01/01 06:00:32;;;;;;;;;;;;;;;-0.07;80.18;97397.01;1734075;81;25939;-90
2021/01/01 06:03:18;;;;;;;;;;;;;;;-0.10;80.15;97397.13;1679534;82;22151;-90
2021/01/01 06:06:06;;;;;;;;;;;;;;;-0.14;80.17;97395.59;1739120;81;26257;-90
2021/01/01 06:08:52;;;;;;;;;;;;;;;-0.15;80.14;97390.52;1735727;82;24721;-90
2021/01/01 06:11:39;;;;;;;;;;;;;;;-0.21;80.14;97386.92;1681217;83;20289;-89
2021/01/01 06:14:26;;;;;;;;;;;;;;;-0.23;80.14;97394.73;1694367;83;24941;-89
2021/01/01 06:17:12;;;;;;;;;;;;;;;-0.26;80.14;97392.72;1686961;83;22192;-89
2021/01/01 06:19:58;;;;;;;;;;;;;;;-0.29;80.13;97397.56;1689050;82;26231;-89
2021/01/01 06:22:44;;;;;;;;;;;;;;;-0.34;80.12;97385.36;1703277;83;24561;-89
2021/01/01 06:25:32;;;;;;;;;;;;;;;-0.36;80.12;97390.17;1680659;85;20527;-89
2021/01/01 06:28:20;;;;;;;;;;;;;;;-0.37;80.12;97389.77;1697587;83;25149;-89
2021/01/01 06:31:06;;;;;;;;;;;;;;;-0.37;80.12;97396.20;1683934;84;22176;-89
2021/01/01 06:33:52;;;;;;;;;;;;;;;-0.40;80.13;97393.77;1699192;83;26272;-88
2021/01/01 06:36:38;;;;;;;;;;;;;;;-0.44;80.14;97396.46;1680394;83;24890;-88
2021/01/01 06:39:26;;;;;;;;;;;;;;;-0.47;80.13;97397.89;1679932;85;20372;-87
2021/01/01 06:42:12;;;;;;;;;;;;;;;-0.50;80.13;97397.20;1700523;83;25171;-89
2021/01/01 06:44:59;;;;;;;;;;;;;;;-0.50;80.13;97398.03;1663351;85;22221;-89
2021/01/01 06:47:45;;;;;;;;;;;;;;;-0.52;80.14;97397.70;1660761;85;26352;-88
2021/01/01 06:50:32;;;;;;;;;;;;;;;-0.52;80.15;97397.70;1687739;84;24775;-88
2021/01/01 06:53:18;;;;;;;;;;;;;;;-0.59;80.14;97397.12;1698501;83;20328;-88
2021/01/01 06:56:04;;;;;;;;;;;;;;;-0.71;80.17;97404.05;1679291;84;26176;-88
2021/01/01 06:58:50;;;;;;;;;;;;;;;-0.80;80.15;97398.46;1703837;82;22215;-88
2021/01/01 07:01:36;;;;;;;;;;;;;;;-0.90;80.11;97401.86;1681662;83;26137;-88
2021/01/01 07:04:22;;;;;;;;;;;;;;;-0.97;80.13;97397.86;1696422;83;24660;-87
2021/01/01 07:07:08;;;;;;;;;;;;;;;-0.99;80.09;97393.26;1673633;85;20314;-87
2021/01/01 07:09:54;;;;;;;;;;;;;;;-1.04;80.09;97392.17;1688860;83;25141;-88
2021/01/01 07:12:42;;;;;;;;;;;;;;;-1.06;80.08;97384.96;1720006;81;22163;-88
2021/01/01 07:15:28;;;;;;;;;;;;;;;-1.04;80.09;97392.61;1703482;84;26089;-88
2021/01/01 07:18:14;;;;;;;;;;;;;;;-1.03;80.09;97396.38;1699150;83;24671;-88
2021/01/01 07:21:00;;;;;;;;;;;;;;;-0.99;80.12;97399.23;1701282;82;20295;-88
2021/01/01 07:23:47;;;;;;;;;;;;;;;-0.97;80.15;97395.30;1710685;83;25180;-88
2021/01/01 07:26:34;;;;;;;;;;;;;;;-0.99;80.17;97399.67;1708952;81;22143;-89
2021/01/01 07:29:20;;;;;;;;;;;;;;;-0.95;80.21;97393.52;1732994;81;27048;-88
2021/01/01 07:32:05;;;;;;;;;;;;;;;-0.95;80.23;97393.52;1732234;82;25415;-88
2021/01/01 07:34:52;;;;;;;;;;;;;;;-1.00;80.26;97392.86;1733298;81;20287;-88
2021/01/01 07:37:38;;;;;;;;;;;;;;;-0.97;80.27;97397.41;1716036;82;25134;-90
2021/01/01 07:40:12;;;;;;;;;;;;;;;-0.94;80.28;97401.16;1691329;84;22358;-89
2021/01/01 07:42:59;;;;;;;;;;;;;;;-0.97;80.30;97399.98;1683152;83;26138;-89
2021/01/01 07:45:47;;;;;;;;;;;;;;;-0.97;80.32;97399.14;1699780;83;25550;-88
2021/01/01 07:48:34;;;;;;;;;;;;;;;-0.96;80.33;97402.11;1737191;82;20446;-88
2021/01/01 07:51:24;;;;;;;;;;;;;;;-0.92;80.34;97408.78;1742862;81;25286;-88
2021/01/01 07:54:13;;;;;;;;;;;;;;;-0.82;80.36;97419.53;1730777;81;22068;-90
2021/01/01 07:56:59;;;;;;;;;;;;;;;-0.73;80.39;97419.15;1678663;84;26198;-90
2021/01/01 07:59:45;;;;;;;;;;;;;;;-0.65;80.42;97414.52;1731062;82;24678;-89
2021/01/01 08:02:32;;;;;;;;;;;;;;;-0.61;80.46;97419.48;1679723;84;20567;-89
2021/01/01 08:05:17;;;;;;;;;;;;;;;-0.60;80.50;97423.70;1729757;82;25300;-89
2021/01/01 08:08:03;;;;;;;;;;;;;;;-0.56;80.51;97430.41;1727174;82;22098;-89
2021/01/01 08:10:49;;;;;;;;;;;;;;;-0.46;80.53;97437.27;1704509;84;26352;-89
2021/01/01 08:13:35;;;;;;;;;;;;;;;-0.25;80.55;97440.66;1716791;82;24602;-89
2021/01/01 08:16:21;;;;;;;;;;;;;;;-0.04;80.59;97438.00;1693260;83;20189;-89
2021/01/01 08:19:07;;;;;;;;;;;;;;;-0.01;80.63;97441.74;1699030;84;25393;-88
2021/01/01 08:21:53;;;;;;;;;;;;;;;-0.09;80.68;97435.25;1727661;82;22317;-89
2021/01/01 08:24:41;;;;;;;;;;;;;;;-0.21;80.71;97435.77;1686499;84;26202;-88
2021/01/01 08:27:27;;;;;;;;;;;;;;;-0.27;80.72;97439.44;1729259;82;24659;-89
2021/01/01 08:30:14;;;;;;;;;;;;;;;-0.29;80.71;97448.97;1701854;83;20272;-89
2021/01/01 08:33:00;;;;;;;;;;;;;;;-0.30;80.70;97447.29;1707093;83;25149;-89
2021/01/01 08:35:48;;;;;;;;;;;;;;;-0.36;80.70;97445.42;1726067;82;21475;-89
2021/01/01 08:38:34;;;;;;;;;;;;;;;-0.48;80.70;97441.19;1687776;83;26311;-89
2021/01/01 08:41:20;;;;;;;;;;;;;;;-0.50;80.67;97443.00;1684817;83;24714;-89
2021/01/01 08:44:07;;;;;;;;;;;;;;;-0.47;80.67;97454.42;1686460;83;20363;-89
2021/01/01 08:46:55;;;;;;;;;;;;;;;-0.38;80.65;97442.10;1687566;84;26147;-89
2021/01/01 08:49:41;;;;;;;;;;;;;;;-0.32;80.69;97450.37;1689268;83;21369;-89
2021/01/01 08:52:29;;;;;;;;;;;;;;;-0.28;80.68;97448.52;1691374;83;26108;-88
2021/01/01 08:55:18;;;;;;;;;;;;;;;-0.28;80.72;97451.09;1691402;84;25454;-89
2021/01/01 08:58:04;;;;;;;;;;;;;;;-0.15;80.74;97453.51;1679196;84;20336;-89
2021/01/01 09:00:50;;;;;;;;;;;;;;;-0.08;80.77;97448.05;1733156;81;25093;-88
2021/01/01 09:03:36;;;;;;;;;;;;;;;-0.02;80.81;97448.23;1700727;82;22163;-89
2021/01/01 09:06:22;;;;;;;;;;;;;;;0.07;80.84;97452.97;1697394;83;26309;-89
2021/01/01 09:09:09;;;;;;;;;;;;;;;0.07;80.88;97456.82;1729909;82;23864;-88
2021/01/01 09:11:55;;;;;;;;;;;;;;;0.10;80.89;97452.01;1689842;83;20539;-88
2021/01/01 09:14:41;;;;;;;;;;;;;;;0.12;80.93;97451.02;1721434;82;25099;-89
2021/01/01 09:17:27;;;;;;;;;;;;;;;0.08;80.95;97454.64;1731208;82;22980;-89
2021/01/01 09:20:14;;;;;;;;;;;;;;;0.01;80.98;97454.52;1680180;83;26254;-89
2021/01/01 09:23:01;;;;;;;;;;;;;;;-0.02;80.98;97452.92;1736123;81;25442;-88
2021/01/01 09:25:47;;;;;;;;;;;;;;;-0.05;80.96;97455.61;1703272;82;20318;-89
2021/01/01 09:28:38;;;;;;;;;;;;;;;-0.11;80.97;97455.87;1701167;82;25285;-89
2021/01/01 09:31:24;;;;;;;;;;;;;;;-0.10;80.96;97454.98;1700523;84;22143;-88
2021/01/01 09:34:10;;;;;;;;;;;;;;;-0.12;80.97;97454.23;1734601;82;26127;-89
2021/01/01 09:36:58;;;;;;;;;;;;;;;-0.19;80.96;97456.67;1734762;82;25763;-90
2021/01/01 09:39:45;;;;;;;;;;;;;;;-0.26;80.97;97455.70;1732210;82;20559;-89
2021/01/01 09:42:34;;;;;;;;;;;;;;;-0.30;80.97;97452.88;1679514;84;25944;-89
2021/01/01 09:45:21;;;;;;;;;;;;;;;-0.24;80.96;97456.48;1730445;82;22317;-90
2021/01/01 09:48:07;;;;;;;;;;;;;;;-0.14;80.97;97455.18;1732226;82;26180;-89
2021/01/01 09:50:53;;;;;;;;;;;;;;;0.03;81.00;97460.44;1699363;84;24391;-90
2021/01/01 09:53:39;;;;;;;;;;;;;;;0.17;81.03;97457.25;1717323;82;20427;-90
2021/01/01 09:56:25;;;;;;;;;;;;;;;0.28;81.11;97465.33;1705324;83;25135;-90
2021/01/01 09:58:58;;;;;;;;;;;;;;;0.25;81.17;97468.89;1728736;81;22120;-89
2021/01/01 10:01:45;;;;;;;;;;;;;;;0.28;81.20;97460.18;1700688;83;27211;-89
2021/01/01 10:04:37;;;;;;;;;;;;;;;0.25;81.24;97465.03;1678627;85;25550;-89
2021/01/01 10:07:25;;;;;;;;;;;;;;;0.23;81.27;97471.97;1731834;81;20519;-88
2021/01/01 10:10:12;;;;;;;;;;;;;;;0.19;81.27;97463.17;1731737;82;25100;-88
2021/01/01 10:12:58;;;;;;;;;;;;;;;0.16;81.30;97464.16;1680722;84;23073;-89
2021/01/01 10:15:45;;;;;;;;;;;;;;;0.10;81.31;97464.42;1698516;83;26949;-88
2021/01/01 10:18:30;;;;;;;;;;;;;;;0.09;81.31;97461.91;1686334;84;24631;-88
2021/01/01 10:21:17;;;;;;;;;;;;;;;0.08;81.30;97457.66;1697988;82;20702;-89
2021/01/01 10:24:02;;;;;;;;;;;;;;;0.07;81.31;97460.68;1679919;83;25149;-89
2021/01/01 10:26:49;;;;;;;;;;;;;;;0.24;81.30;97460.78;1680181;85;22115;-88
2021/01/01 10:29:37;;;;;;;;;;;;;;;0.26;81.34;97455.58;1703405;83;27106;-88
2021/01/01 10:32:23;;;;;;;;;;;;;;;0.21;81.37;97451.09;1685950;84;24585;-88
2021/01/01 10:35:09;;;;;;;;;;;;;;;0.20;81.38;97451.53;1693786;83;20387;-88
2021/01/01 10:37:55;;;;;;;;;;;;;;;0.19;81.41;97459.31;1681031;85;24979;-88
2021/01/01 10:40:45;;;;;;;;;;;;;;;0.26;81.40;97453.84;1679666;84;22312;-88
2021/01/01 10:43:31;;;;;;;;;;;;;;;0.46;81.42;97454.67;1692269;83;26355;-88
2021/01/01 10:46:21;;;;;;;;;;;;;;;0.56;81.46;97461.91;1679675;85;24626;-89
2021/01/01 10:49:07;;;;;;;;;;;;;;;0.64;81.51;97456.42;1692918;83;20516;-88
2021/01/01 10:51:53;;;;;;;;;;;;;;;0.81;81.53;97463.75;1687857;84;25272;-88
2021/01/01 10:54:39;;;;;;;;;;;;;;;0.97;81.57;97461.29;1690171;83;22126;-88
2021/01/01 10:57:27;;;;;;;;;;;;;;;1.08;81.60;97464.64;1679105;84;26221;-89
2021/01/01 11:00:12;;;;;;;;;;;;;;;1.22;81.65;97461.78;1663407;85;24633;-87
2021/01/01 11:02:59;;;;;;;;;;;;;;;1.31;81.67;97460.97;1693996;83;20316;-88
2021/01/01 11:05:45;;;;;;;;;;;;;;;1.40;81.72;97460.06;1681304;84;26090;-88
2021/01/01 11:08:31;;;;;;;;;;;;;;;1.47;81.73;97458.02;1682083;84;23292;-88
2021/01/01 11:11:17;;;;;;;;;;;;;;;1.52;81.76;97455.60;1665707;84;25345;-88
2021/01/01 11:14:08;;;;;;;;;;;;;;;1.52;81.77;97462.05;1686415;83;24796;-88
2021/01/01 12:22:06;;;;;;;;;;;;;;;2.01;81.46;97464.73;1666409;84;24592;-90
2021/01/01 12:24:51;;;;;;;;;;;;;;;2.17;81.51;97464.33;1671415;84;22177;-90
2021/01/01 12:27:39;;;;;;;;;;;;;;;2.27;81.53;97468.55;1675287;83;26891;-89
2021/01/01 12:30:27;;;;;;;;;;;;;;;2.38;81.55;97470.11;1678921;84;24609;-90
2021/01/01 12:33:13;;;;;;;;;;;;;;;2.46;81.54;97470.52;1674328;84;20284;-90
2021/01/01 12:35:59;;;;;;;;;;;;;;;2.48;81.55;97466.96;1678117;83;25390;-90
2021/01/01 12:38:45;;;;;;;;;;;;;;;2.47;81.56;97464.45;1680555;83;22183;-90
2021/01/01 12:41:31;;;;;;;;;;;;;;;2.33;81.59;97466.94;1677944;84;27021;-90
2021/01/01 12:44:17;;;;;;;;;;;;;;;2.15;81.60;97471.75;1667418;85;24654;-92
2021/01/01 12:47:04;;;;;;;;;;;;;;;2.02;81.57;97468.51;1674383;84;20451;-91
2021/01/01 12:49:52;;;;;;;;;;;;;;;1.89;81.54;97467.48;1671895;85;25966;-90
2021/01/01 12:52:39;;;;;;;;;;;;;;;1.70;81.52;97466.72;1668199;84;22234;-91
2021/01/01 12:55:24;;;;;;;;;;;;;;;1.73;81.46;97467.04;1689681;84;26139;-91
2021/01/01 12:58:10;;;;;;;;;;;;;;;1.76;81.39;97465.58;1690892;82;25509;-90
2021/01/01 13:00:56;;;;;;;;;;;;;;;1.84;81.35;97470.75;1669738;85;20421;-90
2021/01/01 13:03:43;;;;;;;;;;;;;;;1.95;81.33;97468.47;1697837;84;26117;-90
2021/01/01 13:06:29;;;;;;;;;;;;;;;2.05;81.31;97472.23;1688091;84;22152;-91
2021/01/01 13:09:15;;;;;;;;;;;;;;;2.06;81.31;97471.33;1691687;82;27078;-89
2021/01/01 13:12:03;;;;;;;;;;;;;;;2.16;81.31;97476.02;1690650;82;25279;-90
2021/01/01 13:14:49;;;;;;;;;;;;;;;2.26;81.30;97477.20;1710004;82;20485;-90
2021/01/01 13:17:36;;;;;;;;;;;;;;;2.35;81.28;97483.16;1735625;80;25345;-91
2021/01/01 13:20:22;;;;;;;;;;;;;;;2.21;81.28;97473.57;1704997;81;22974;-90
2021/01/01 13:23:08;;;;;;;;;;;;;;;2.21;81.26;97480.02;1734651;80;26132;-90
2021/01/01 13:25:54;;;;;;;;;;;;;;;2.27;81.25;97482.75;1735660;82;24713;-91
2021/01/01 13:28:42;;;;;;;;;;;;;;;2.18;81.24;97483.23;1695966;82;20206;-90
2021/01/01 13:31:28;;;;;;;;;;;;;;;2.00;81.26;97484.55;1736594;79;25071;-90
2021/01/01 13:34:14;;;;;;;;;;;;;;;1.99;81.20;97489.32;1716279;83;22209;-89
2021/01/01 13:37:01;;;;;;;;;;;;;;;2.10;81.15;97486.19;1713823;81;27115;-89
2021/01/01 13:39:46;;;;;;;;;;;;;;;2.27;81.11;97486.62;1708216;83;24432;-89
2021/01/01 13:42:37;;;;;;;;;;;;;;;2.40;81.10;97495.41;1737979;80;20796;-90
2021/01/01 13:45:26;;;;;;;;;;;;;;;2.53;81.08;97497.25;1711316;83;25262;-89
2021/01/01 13:48:12;;;;;;;;;;;;;;;2.56;81.08;97496.27;1745680;79;23196;-88
2021/01/01 13:51:00;;;;;;;;;;;;;;;2.49;81.09;97500.08;1713519;82;26130;-89
2021/01/01 13:53:46;;;;;;;;;;;;;;;2.43;81.08;97502.52;1718266;83;24579;-89
2021/01/01 13:56:32;;;;;;;;;;;;;;;2.42;81.04;97498.72;1703220;83;20389;-89
2021/01/01 13:59:19;;;;;;;;;;;;;;;2.44;81.03;97501.61;1711604;83;25979;-90
2021/01/01 14:02:06;;;;;;;;;;;;;;;2.42;81.01;97504.72;1705117;83;23036;-89
2021/01/01 14:04:51;;;;;;;;;;;;;;;2.50;80.97;97505.62;1698371;83;25402;-90
2021/01/01 14:07:37;;;;;;;;;;;;;;;2.49;80.97;97508.66;1698678;83;25625;-89
2021/01/01 14:10:23;;;;;;;;;;;;;;;2.46;80.93;97511.39;1744415;80;20349;-90
2021/01/01 14:13:09;;;;;;;;;;;;;;;2.47;80.90;97512.22;1715003;81;26288;-89
2021/01/01 14:15:55;;;;;;;;;;;;;;;2.42;80.89;97520.67;1732856;81;22219;-89
2021/01/01 14:18:42;;;;;;;;;;;;;;;2.40;80.87;97528.97;1699166;83;26114;-89
2021/01/01 14:21:27;;;;;;;;;;;;;;;2.45;80.83;97520.07;1707507;82;24564;-89
2021/01/01 14:24:14;;;;;;;;;;;;;;;2.39;80.80;97524.26;1705342;82;20348;-90
2021/01/01 14:27:00;;;;;;;;;;;;;;;2.39;80.78;97534.58;1730224;81;26013;-90
2021/01/01 14:29:46;;;;;;;;;;;;;;;2.42;80.74;97532.28;1684120;82;22164;-89
2021/01/01 14:32:33;;;;;;;;;;;;;;;2.41;80.72;97530.61;1689351;83;26197;-89
2021/01/01 14:35:19;;;;;;;;;;;;;;;2.43;80.67;97527.50;1707251;81;24672;-90
2021/01/01 14:38:05;;;;;;;;;;;;;;;2.35;80.67;97528.34;1708007;83;20264;-89
2021/01/01 14:40:51;;;;;;;;;;;;;;;2.23;80.63;97522.09;1732026;82;25114;-89
2021/01/01 14:43:40;;;;;;;;;;;;;;;2.18;80.62;97517.62;1689344;83;22212;-90
2021/01/01 14:46:27;;;;;;;;;;;;;;;2.09;80.60;97517.61;1691034;83;26096;-90
2021/01/01 14:49:13;;;;;;;;;;;;;;;1.95;80.59;97514.06;1699896;83;24825;-89
2021/01/01 14:51:59;;;;;;;;;;;;;;;1.69;80.57;97521.33;1688663;83;20600;-89
2021/01/01 14:54:47;;;;;;;;;;;;;;;1.48;80.51;97519.80;1698798;83;25260;-89
2021/01/01 14:57:21;;;;;;;;;;;;;;;1.32;80.47;97518.86;1692568;83;21770;-89
2021/01/01 15:00:07;;;;;;;;;;;;;;;1.24;80.42;97536.00;1696042;83;26186;-90
2021/01/01 15:02:53;;;;;;;;;;;;;;;1.27;80.35;97542.73;1685832;84;24809;-90
2021/01/01 15:05:28;;;;;;;;;;;;;;;1.25;80.32;97544.56;1693127;83;20324;-89
2021/01/01 15:08:20;;;;;;;;;;;;;;;1.22;80.29;97544.23;1688782;83;25921;-90
2021/01/01 15:11:06;;;;;;;;;;;;;;;1.26;80.29;97543.62;1691321;83;22223;-89
2021/01/01 15:13:53;;;;;;;;;;;;;;;1.35;80.30;97552.24;1693124;83;26203;-88
2021/01/01 15:16:39;;;;;;;;;;;;;;;1.41;80.31;97553.25;1694966;83;24641;-89
2021/01/01 15:19:25;;;;;;;;;;;;;;;1.50;80.31;97550.67;1702173;82;20284;-89
2021/01/01 15:22:11;;;;;;;;;;;;;;;1.58;80.34;97555.02;1702156;82;25325;-89
2021/01/01 15:24:57;;;;;;;;;;;;;;;1.66;80.36;97556.30;1699236;82;21494;-90
2021/01/01 15:27:44;;;;;;;;;;;;;;;1.68;80.39;97558.38;1697309;82;26472;-90
2021/01/01 15:30:31;;;;;;;;;;;;;;;1.67;80.40;97554.56;1699043;83;24969;-89
2021/01/01 15:33:17;;;;;;;;;;;;;;;1.72;80.41;97564.66;1701474;82;20272;-89
2021/01/01 15:36:03;;;;;;;;;;;;;;;1.68;80.41;97565.27;1703164;82;25179;-89
2021/01/01 15:38:49;;;;;;;;;;;;;;;1.69;80.41;97565.17;1696775;82;22143;-89